Data for 11/13/2010

Time Sea-Level Adjusted Pressure Absolute Pressure Temperature Relative Humidity Dew Point   
(mb) (inHg) (mb) (inHg) (C) (F) (%) (C) (F)
00:05 1029 30.39 858 25.34 0.1 32.2 64 -5.8 21.5
00:10 1029 30.39 858 25.34 0.1 32.1 64 -5.9 21.4
00:15 1029 30.39 858 25.34 0 32 65 -5.8 21.6
00:20 1029 30.39 858 25.34 -0 31.9 63 -6.3 20.7
00:25 1029 30.39 858 25.34 0 32 64 -6 21.3
00:30 1029 30.39 858 25.34 -0 31.9 65 -5.9 21.3
00:35 1029 30.39 858 25.34 -0.1 31.8 65 -6 21.2
00:40 1029 30.39 858 25.34 -0.1 31.8 65 -5.9 21.3
00:45 1029 30.39 858 25.34 -0.2 31.7 65 -6 21.3
00:50 1029 30.39 858 25.34 -0.2 31.6 65 -6 21.1
00:55 1029 30.39 858 25.34 -0.2 31.6 65 -6.1 21.1
01:00 1029 30.39 858 25.34 -0.3 31.4 66 -5.9 21.4
01:05 1029 30.39 858 25.34 -0.4 31.3 66 -6 21.2
01:10 1029 30.39 858 25.34 -0.4 31.2 66 -6 21.3
01:15 1029 30.39 858 25.34 -0.5 31.1 66 -6 21.2
01:20 1029 30.39 858 25.34 -0.5 31.2 66 -6.1 21
01:25 1029 30.39 858 25.34 -0.5 31.2 67 -5.9 21.3
01:30 1029 30.39 858 25.34 -0.5 31.1 67 -5.8 21.5
01:35 1029 30.39 858 25.34 -0.5 31.1 67 -5.9 21.4
01:40 1029 30.39 858 25.34 -0.5 31 68 -5.7 21.7
01:45 1029 30.39 858 25.34 -0.6 30.9 68 -5.8 21.6
01:50 1029 30.39 858 25.34 -0.6 30.9 70 -5.4 22.3
01:55 1029 30.39 858 25.34 -0.7 30.8 70 -5.4 22.3
02:00 1029 30.39 858 25.34 -0.8 30.6 71 -5.5 22.1
02:05 1029 30.39 858 25.34 -0.9 30.5 71 -5.4 22.2
02:10 1029 30.39 858 25.34 -0.8 30.5 70 -5.7 21.8
02:15 1029 30.39 858 25.34 -0.8 30.5 69 -5.8 21.5
02:20 1029 30.39 858 25.34 -0.8 30.5 69 -5.9 21.4
02:25 1029 30.39 858 25.34 -0.8 30.5 69 -5.8 21.6
02:30 1029 30.39 858 25.34 -0.9 30.5 69 -5.8 21.6
02:35 1029 30.39 858 25.34 -0.9 30.4 70 -5.6 21.8
02:40 1029 30.39 858 25.34 -0.9 30.4 70 -5.6 21.9
02:45 1029 30.39 858 25.34 -0.9 30.4 70 -5.8 21.6
02:50 1029 30.39 858 25.34 -0.9 30.4 70 -5.7 21.7
02:55 1029 30.39 858 25.34 -0.9 30.5 70 -5.7 21.7
03:00 1029 30.39 858 25.34 -0.9 30.3 70 -5.8 21.6
03:05 1029 30.39 858 25.34 -1.1 30.1 71 -5.7 21.8
03:10 1029 30.39 858 25.34 -1.4 29.5 73 -5.7 21.8
03:15 1029 30.39 858 25.34 -1.4 29.6 72 -5.7 21.7
03:20 1029 30.39 858 25.34 -1.2 29.8 72 -5.7 21.7
03:25 1029 30.39 858 25.34 -1.2 29.8 71 -5.8 21.5
03:30 1029 30.39 858 25.34 -1.2 29.8 72 -5.7 21.8
03:35 1029 30.39 858 25.34 -1.2 29.8 71 -5.8 21.6
03:40 1029 30.39 858 25.34 -1.1 29.9 70 -5.9 21.3
03:45 1028 30.36 858 25.34 -1 30.1 69 -6 21.3
03:50 1028 30.36 858 25.34 -1 30.1 70 -5.8 21.5
03:55 1028 30.36 858 25.34 -1.1 30.1 70 -5.8 21.6
04:00 1028 30.36 858 25.34 -1.1 30.1 70 -5.9 21.5
04:05 1029 30.39 858 25.34 -1.1 30 71 -5.7 21.7
04:10 1029 30.39 858 25.34 -1.1 30 71 -5.7 21.8
04:15 1029 30.39 858 25.34 -1.1 30 69 -6 21.2
04:20 1029 30.39 858 25.34 -1.1 30.1 69 -6 21.1
04:25 1028 30.36 858 25.34 -1 30.1 69 -6 21.3
04:30 1028 30.36 858 25.34 -1.1 30.1 70 -6 21.3
04:35 1028 30.36 858 25.34 -1.1 30 72 -5.5 22.2
04:40 1028 30.36 858 25.34 -1.4 29.6 72 -5.7 21.7
04:45 1028 30.36 858 25.34 -1.3 29.6 73 -5.6 21.9
04:50 1028 30.36 858 25.34 -1.2 29.8 72 -5.7 21.7
04:55 1028 30.36 858 25.34 -1.2 29.8 71 -5.8 21.6
05:00 1028 30.36 858 25.34 -1.2 29.8 71 -5.9 21.4
05:05 1028 30.36 858 25.34 -1.2 29.9 70 -5.9 21.3
05:10 1028 30.36 858 25.34 -1.2 29.9 70 -6 21.1
05:15 1028 30.36 858 25.34 -1.1 29.9 69 -6.2 20.9
05:20 1028 30.36 858 25.34 -1.2 29.9 70 -6 21.3
05:25 1028 30.36 858 25.34 -1.2 29.8 73 -5.5 22.1
05:30 1028 30.36 858 25.34 -1.7 29 75 -5.6 22
05:35 1028 30.36 858 25.34 -2 28.5 75 -5.7 21.7
05:40 1028 30.36 858 25.34 -2.1 28.2 75 -6 21.3
05:45 1028 30.36 857 25.31 -2 28.4 72 -6.4 20.5
05:50 1028 30.36 857 25.31 -1.7 28.9 69 -6.6 20.1
05:55 1028 30.36 857 25.31 -1.6 29.2 70 -6.4 20.6
06:00 1028 30.36 857 25.31 -1.7 29 70 -6.5 20.4
06:05 1028 30.36 857 25.31 -1.7 29 69 -6.6 20.2
06:10 1028 30.36 857 25.31 -1.7 28.9 69 -6.6 20.1
06:15 1028 30.36 857 25.31 -1.7 28.9 70 -6.6 20.2
06:20 1028 30.36 857 25.31 -1.7 29 70 -6.5 20.4
06:25 1028 30.36 857 25.31 -1.9 28.7 72 -6.3 20.7
06:30 1028 30.36 857 25.31 -2 28.5 71 -6.6 20.2
06:35 1028 30.36 857 25.31 -1.8 28.7 70 -6.6 20.1
06:40 1028 30.36 857 25.31 -1.8 28.8 70 -6.6 20.2
06:45 1028 30.36 857 25.31 -1.7 28.9 69 -6.8 19.8
06:50 1028 30.36 857 25.31 -1.7 29 69 -6.6 20
06:55 1028 30.36 857 25.31 -1.7 29 69 -6.6 20.1
07:00 1028 30.36 857 25.31 -1.8 28.7 70 -6.6 20.1
07:05 1028 30.36 857 25.31 -1.8 28.8 68 -7 19.4
07:10 1028 30.36 857 25.31 -1.7 29 68 -6.9 19.6
07:15 1028 30.36 857 25.31 -1.6 29.1 67 -6.9 19.6
07:20 1028 30.36 857 25.31 -1.6 29.1 68 -6.8 19.7
07:25 1028 30.36 857 25.31 -1.6 29.1 67 -6.9 19.5
07:30 1028 30.36 857 25.31 -1.6 29.1 67 -7 19.5
07:35 1027 30.33 857 25.31 -1.6 29.1 66 -7.1 19.3
07:40 1027 30.33 857 25.31 -1.5 29.2 66 -7.1 19.3
07:45 1027 30.33 857 25.31 -1.5 29.3 65 -7.2 19.1
07:50 1027 30.33 857 25.31 -1.6 29.2 65 -7.2 19
07:55 1027 30.33 857 25.31 -1.5 29.2 65 -7.3 18.9
08:00 1027 30.33 857 25.31 -1.5 29.3 65 -7.3 18.9
08:05 1027 30.33 857 25.31 -1.5 29.3 65 -7.3 18.9
08:10 1027 30.33 857 25.31 -1.4 29.5 64 -7.3 18.8
08:15 1027 30.33 857 25.31 -1.3 29.7 64 -7.3 18.9
08:20 1027 30.33 856 25.28 -1.1 30 63 -7.2 19
08:25 1027 30.33 856 25.28 -1.1 30 63 -7.2 19
08:30 1027 30.33 856 25.28 -1 30.1 63 -7.2 19.1
08:35 1027 30.33 856 25.28 -0.9 30.4 64 -7 19.5
08:40 1027 30.33 856 25.28 -0.8 30.6 63 -6.9 19.5
08:45 1027 30.33 856 25.28 -0.5 31.1 61 -7.2 19.1
08:50 1027 30.33 856 25.28 -0.5 31.1 60 -7.4 18.8
08:55 1027 30.33 856 25.28 -0.7 30.8 61 -7.3 18.9
09:00 1027 30.33 856 25.28 -0.8 30.5 62 -7.3 18.8
09:05 1027 30.33 856 25.28 -0.9 30.3 61 -7.5 18.6
09:10 1027 30.33 856 25.28 -0.8 30.5 60 -7.7 18.1
09:15 1027 30.33 856 25.28 -0.1 31.9 56 -7.9 17.8
09:20 1027 30.33 856 25.28 0.4 32.7 54 -7.9 17.8
09:25 1027 30.33 856 25.28 0.6 33.2 54 -7.8 18
09:30 1027 30.33 856 25.28 0.8 33.4 53 -7.8 18
09:35 1027 30.33 856 25.28 1 33.8 52 -7.8 17.9
09:40 1027 30.33 856 25.28 1.1 33.9 53 -7.5 18.5
09:45 1027 30.33 856 25.28 0.7 33.2 54 -7.5 18.4
09:50 1027 30.33 856 25.28 0.5 32.9 55 -7.6 18.4
09:55 1027 30.33 856 25.28 0.4 32.6 55 -7.6 18.3
10:00 1027 30.33 856 25.28 0.2 32.4 56 -7.6 18.4
10:05 1027 30.33 856 25.28 0.2 32.4 55 -7.7 18.2
10:10 1027 30.33 856 25.28 0.1 32.1 58 -7.2 19.1
10:15 1027 30.33 856 25.28 -0 32 57 -7.5 18.5
10:20 1027 30.33 856 25.28 0.2 32.3 55 -7.9 17.8
10:25 1026 30.3 856 25.28 0.4 32.7 55 -7.7 18.2
10:30 1026 30.3 856 25.28 0.6 33 54 -7.8 18
10:35 1026 30.3 855 25.25 0.3 32.5 55 -7.7 18.2
10:40 1026 30.3 855 25.25 -0.2 31.6 56 -7.9 17.8
10:45 1026 30.3 855 25.25 -0.1 31.9 54 -8.2 17.3
10:50 1026 30.3 855 25.25 0 32.1 54 -8.2 17.2
10:55 1026 30.3 855 25.25 0.1 32.3 55 -7.9 17.7
11:00 1026 30.3 855 25.25 0.2 32.3 53 -8.4 16.9
11:05 1026 30.3 855 25.25 0.1 32.3 54 -8 17.6
11:10 1026 30.3 855 25.25 0.5 32.8 56 -7.2 19
11:15 1025 30.27 855 25.25 0.4 32.7 55 -7.6 18.3
11:20 1025 30.27 854 25.22 0.2 32.4 54 -8.1 17.5
11:25 1025 30.27 854 25.22 0.4 32.7 52 -8.4 16.9
11:30 1025 30.27 854 25.22 0.5 33 53 -8 17.6
11:35 1025 30.27 854 25.22 1 33.8 49 -8.4 16.8
11:40 1025 30.27 854 25.22 1 33.7 48 -8.9 16
11:45 1025 30.27 854 25.22 0.9 33.7 48 -8.9 15.9
11:50 1025 30.27 854 25.22 0.5 32.9 51 -8.5 16.6
11:55 1025 30.27 854 25.22 0.4 32.7 52 -8.3 17.1
12:00 1024 30.24 854 25.22 0.5 32.8 51 -8.4 16.8
12:05 1024 30.24 854 25.22 0.4 32.8 51 -8.6 16.5
12:10 1024 30.24 854 25.22 0.4 32.7 50 -8.8 16.2
12:15 1024 30.24 853 25.19 0.4 32.8 49 -9 15.7
12:20 1024 30.24 853 25.19 0.6 33.1 49 -8.8 16.1
12:25 1024 30.24 853 25.19 0.8 33.4 51 -8.3 17.1
12:30 1024 30.24 853 25.19 1.1 33.9 50 -8.3 17
12:35 1024 30.24 853 25.19 1.4 34.5 48 -8.5 16.7
12:40 1024 30.24 853 25.19 1 33.9 48 -8.9 16
12:45 1024 30.24 853 25.19 0.8 33.4 49 -8.7 16.3
12:50 1024 30.24 853 25.19 1 33.7 47 -9.2 15.4
12:55 1024 30.24 853 25.19 1.1 33.9 47 -9 15.8
13:00 1024 30.24 853 25.19 1.2 34.2 49 -8.3 17
13:05 1024 30.24 853 25.19 1.3 34.4 48 -8.4 16.9
13:10 1023 30.21 853 25.19 0.9 33.6 49 -8.5 16.6
13:15 1023 30.21 853 25.19 0.8 33.5 51 -8.3 17
13:20 1023 30.21 853 25.19 1 33.8 50 -8.2 17.2
13:25 1023 30.21 853 25.19 1.2 34.1 50 -8.2 17.2
13:30 1023 30.21 853 25.19 1.3 34.4 49 -8.3 17.1
13:35 1023 30.21 853 25.19 1.2 34.2 49 -8.5 16.8
13:40 1023 30.21 852 25.16 1.1 34 50 -8.2 17.3
13:45 1023 30.21 852 25.16 1.1 33.9 50 -8.2 17.2
13:50 1023 30.21 852 25.16 1.1 34 48 -8.7 16.4
13:55 1023 30.21 852 25.16 1 33.8 47 -8.9 15.9
14:00 1023 30.21 852 25.16 1.1 33.9 50 -8.3 17
14:05 1023 30.21 852 25.16 1.3 34.3 49 -8.1 17.3
14:10 1023 30.21 852 25.16 1.4 34.5 48 -8.4 16.9
14:15 1023 30.21 852 25.16 1.4 34.6 50 -7.9 17.8
14:20 1023 30.21 852 25.16 1.5 34.8 51 -7.7 18.2
14:25 1023 30.21 852 25.16 1.4 34.6 48 -8.5 16.7
14:30 1023 30.21 852 25.16 1.3 34.3 49 -8.2 17.2
14:35 1023 30.21 852 25.16 1.3 34.3 49 -8.3 17.1
14:40 1023 30.21 852 25.16 1.2 34.2 49 -8.2 17.2
14:45 1023 30.21 852 25.16 1.4 34.5 49 -8.2 17.2
14:50 1023 30.21 852 25.16 1.4 34.5 50 -8 17.6
14:55 1023 30.21 852 25.16 1.5 34.8 50 -7.8 17.9
15:00 1023 30.21 852 25.16 1.7 35.1 47 -8.3 17
15:05 1023 30.21 852 25.16 1.5 34.8 46 -8.8 16.1
15:10 1023 30.21 852 25.16 1.4 34.4 47 -8.7 16.3
15:15 1022 30.18 852 25.16 1.4 34.5 46 -8.9 16
15:20 1022 30.18 852 25.16 1.3 34.3 47 -8.8 16.1
15:25 1022 30.18 851 25.13 1.3 34.3 47 -8.9 16
15:30 1022 30.18 851 25.13 1.2 34.1 52 -7.7 18.2
15:35 1022 30.18 851 25.13 1 33.9 51 -8.1 17.5
15:40 1022 30.18 851 25.13 1.1 34 50 -8.1 17.4
15:45 1022 30.18 851 25.13 1.4 34.4 48 -8.4 16.9
15:50 1022 30.18 851 25.13 1.5 34.6 48 -8.4 16.8
15:55 1022 30.18 851 25.13 1.3 34.4 52 -7.5 18.4
16:00 1022 30.18 851 25.13 1.4 34.4 53 -7.3 18.9
16:05 1022 30.18 851 25.13 1.1 34 54 -7.1 19.1
16:10 1022 30.18 851 25.13 1.2 34.1 56 -6.6 20
16:15 1022 30.18 851 25.13 1.3 34.3 56 -6.5 20.4
16:20 1022 30.18 851 25.13 1.3 34.4 56 -6.5 20.3
16:25 1022 30.18 851 25.13 1.3 34.4 57 -6.3 20.6
16:30 1022 30.18 851 25.13 1.3 34.3 59 -5.9 21.4
16:35 1022 30.18 851 25.13 1.3 34.3 57 -6.3 20.7
16:40 1022 30.18 851 25.13 1.3 34.3 57 -6.3 20.7
16:45 1022 30.18 851 25.13 1.3 34.4 57 -6.3 20.7
16:50 1022 30.18 851 25.13 1.4 34.4 56 -6.4 20.4
16:55 1022 30.18 851 25.13 1.4 34.5 57 -6.2 20.9
17:00 1022 30.18 851 25.13 1.4 34.5 58 -6 21.1
17:05 1022 30.18 851 25.13 1.5 34.6 57 -6.2 20.9
17:10 1022 30.18 852 25.16 1.5 34.7 58 -5.9 21.5
17:15 1022 30.18 852 25.16 1.4 34.6 57 -6.2 20.9
17:20 1022 30.18 852 25.16 1.4 34.4 58 -6 21.3
17:25 1022 30.18 851 25.13 1.3 34.3 59 -5.9 21.5
17:30 1022 30.18 851 25.13 1.2 34.2 59 -5.9 21.5
17:35 1022 30.18 851 25.13 1.2 34.1 60 -5.7 21.8
17:40 1022 30.18 851 25.13 1.1 34 63 -5.2 22.6
17:45 1022 30.18 851 25.13 1 33.8 61 -5.7 21.8
17:50 1022 30.18 851 25.13 0.8 33.4 61 -5.8 21.6
17:55 1022 30.18 851 25.13 0.7 33.3 62 -5.8 21.5
18:00 1022 30.18 851 25.13 0.6 33.1 63 -5.7 21.8
18:05 1022 30.18 851 25.13 0.6 33.1 63 -5.5 22.1
18:10 1022 30.18 851 25.13 0.6 33 65 -5.3 22.5
18:15 1022 30.18 851 25.13 0.6 33 61 -6.1 21
18:20 1022 30.18 851 25.13 0.6 33.1 64 -5.5 22.1
18:25 1022 30.18 851 25.13 0.7 33.3 62 -5.7 21.7
18:30 1022 30.18 851 25.13 0.8 33.4 63 -5.5 22
18:35 1022 30.18 851 25.13 0.8 33.4 63 -5.6 22
18:40 1022 30.18 851 25.13 0.7 33.3 62 -5.6 21.8
18:45 1022 30.18 851 25.13 0.7 33.3 63 -5.6 22
18:50 1021 30.15 851 25.13 0.7 33.2 62 -5.8 21.5
18:55 1021 30.15 850 25.1 0.6 33.1 68 -4.7 23.5
19:00 1021 30.15 850 25.1 0.3 32.6 67 -5 22.9
19:05 1021 30.15 850 25.1 0.1 32.1 69 -4.9 23.1
19:10 1021 30.15 850 25.1 -0.1 31.9 70 -4.8 23.3
19:15 1021 30.15 850 25.1 -0.2 31.7 70 -5 23
19:20 1021 30.15 850 25.1 -0.1 31.7 69 -5.2 22.6
19:25 1021 30.15 850 25.1 -0 32 70 -4.9 23.2
19:30 1021 30.15 850 25.1 0.2 32.4 69 -4.9 23.2
19:35 1021 30.15 850 25.1 0.4 32.7 66 -5.2 22.7
19:40 1021 30.15 850 25.1 0.5 32.9 65 -5.4 22.4
19:45 1021 30.15 850 25.1 0.7 33.2 64 -5.4 22.3
19:50 1021 30.15 850 25.1 0.7 33.3 63 -5.5 22.2
19:55 1021 30.15 850 25.1 0.7 33.3 64 -5.4 22.4
20:00 1021 30.15 850 25.1 0.7 33.3 63 -5.4 22.2
20:05 1021 30.15 850 25.1 0.8 33.4 63 -5.4 22.2
20:10 1021 30.15 850 25.1 0.8 33.4 63 -5.4 22.3
20:15 1021 30.15 850 25.1 0.8 33.5 63 -5.4 22.2
20:20 1021 30.15 850 25.1 0.8 33.5 63 -5.4 22.3
20:25 1021 30.15 850 25.1 0.9 33.5 63 -5.5 22.1
20:30 1021 30.15 850 25.1 0.8 33.5 63 -5.3 22.4
20:35 1021 30.15 850 25.1 0.8 33.5 64 -5.3 22.5
20:40 1021 30.15 850 25.1 0.9 33.6 63 -5.4 22.2
20:45 1021 30.15 850 25.1 1 33.8 64 -5.1 22.8
20:50 1021 30.15 850 25.1 1 33.8 65 -4.8 23.3
20:55 1021 30.15 850 25.1 0.9 33.5 65 -5 23
21:00 1021 30.15 850 25.1 0.4 32.7 68 -4.8 23.4
21:05 1020 30.12 850 25.1 0.1 32.3 67 -5.2 22.6
21:10 1020 30.12 850 25.1 0.4 32.7 65 -5.4 22.3
21:15 1020 30.12 850 25.1 0.6 33.1 67 -4.8 23.3
21:20 1021 30.15 850 25.1 0.7 33.2 68 -4.6 23.7
21:25 1021 30.15 850 25.1 0.6 33.1 69 -4.5 23.8
21:30 1021 30.15 850 25.1 0.6 33.1 69 -4.5 23.9
21:35 1020 30.12 850 25.1 0.7 33.2 69 -4.4 24.1
21:40 1020 30.12 849 25.07 0.7 33.2 70 -4.2 24.4
21:45 1020 30.12 849 25.07 0.7 33.2 69 -4.4 24
21:50 1020 30.12 849 25.07 0.7 33.3 70 -4.1 24.7
21:55 1020 30.12 849 25.07 0.7 33.2 70 -4.2 24.4
22:00 1020 30.12 849 25.07 0.7 33.2 69 -4.3 24.2
22:05 1020 30.12 849 25.07 0.8 33.5 68 -4.4 24.2
22:10 1020 30.12 849 25.07 0.9 33.6 68 -4.4 24.1
22:15 1020 30.12 849 25.07 0.9 33.7 67 -4.5 23.9
22:20 1020 30.12 849 25.07 1 33.8 68 -4.2 24.4
22:25 1020 30.12 849 25.07 0.8 33.5 70 -4 24.8
22:30 1020 30.12 849 25.07 0.6 33.1 71 -4 24.8
22:35 1020 30.12 849 25.07 0.5 32.9 72 -4 24.8
22:40 1020 30.12 849 25.07 0.5 33 70 -4.4 24.1
22:45 1020 30.12 849 25.07 0.7 33.2 69 -4.5 24
22:50 1020 30.12 849 25.07 0.8 33.5 68 -4.4 24.1
22:55 1020 30.12 849 25.07 0.9 33.6 67 -4.5 23.9
23:00 1020 30.12 849 25.07 0.8 33.5 68 -4.4 24.1
23:05 1020 30.12 849 25.07 0.9 33.6 68 -4.4 24
23:10 1020 30.12 849 25.07 0.9 33.7 65 -4.8 23.3
23:15 1020 30.12 849 25.07 1 33.8 65 -4.8 23.3
23:20 1020 30.12 849 25.07 1 33.8 67 -4.5 23.8
23:25 1020 30.12 849 25.07 1 33.8 66 -4.7 23.6
23:30 1020 30.12 849 25.07 1.2 34.1 65 -4.7 23.5
23:35 1020 30.12 849 25.07 1.3 34.3 65 -4.7 23.6
23:40 1020 30.12 849 25.07 1.3 34.3 66 -4.4 24.1
23:45 1020 30.12 849 25.07 1.1 33.9 67 -4.4 24.1
23:50 1020 30.12 849 25.07 0.8 33.5 69 -4.2 24.4
23:55 1020 30.12 849 25.07 0.7 33.3 68 -4.5 23.9
24:00 1020 30.12 849 25.07 0.7 33.3 68 -4.5 24